Terminal Aerodrome Forecast
Issued by NWS

Home | Current Version | Previous Version | Text Only | Print | Product List | Glossary On
Versions: 1 2 3 4 5 6 7 8 9 10 11 12
000
FTUS44 KBMX 162328
TAFTOI
TAF
KTOI 162328Z 1700/1724 32012KT P6SM BKN008 OVC015
     FM170300 34012KT 5SM -SN OVC015
      TEMPO 1704/1707 2SM -SN
     FM171100 34012KT P6SM OVC050
     FM171400 32012KT P6SM SKC=

USA.gov is the U.S. government's official web portal to all federal, state and local government web resources and services.